Time;durP1;ratioP1;P1;durP2;ratioP2;P2;SDS_P1;SDS_P2;PMS_P1;PMS_P2;Temp;Humidity;BMP_temperature;BMP_pressure;BME280_temperature;BME280_humidity;BME280_pressure;Samples;Min_cycle;Max_cycle;Signal;HPM_P1;HPM_P2
2023/08/25 00:01:58;;;;;;;5.35;4.85;;;;;;;;;;5030477;28;20211;-65
2023/08/25 00:04:26;;;;;;;5.93;4.35;;;;;;;;;;5030225;28;20238;-65
2023/08/25 00:06:53;;;;;;;5.88;5.03;;;;;;;;;;5034132;28;20206;-65
2023/08/25 00:09:20;;;;;;;5.22;4.63;;;;;;;;;;5031694;28;20208;-66
2023/08/25 00:11:47;;;;;;;6.78;4.25;;;;;;;;;;5026688;28;20211;-65
2023/08/25 00:14:14;;;;;;;7.18;4.32;;;;;;;;;;5033013;28;20251;-65
2023/08/25 00:16:43;;;;;;;5.57;4.28;;;;;;;;;;5035471;28;20208;-66
2023/08/25 00:19:10;;;;;;;5.10;4.32;;;;;;;;;;5027617;28;20212;-65
2023/08/25 00:21:37;;;;;;;6.13;4.82;;;;;;;;;;5026949;28;20205;-65
2023/08/25 00:24:04;;;;;;;5.20;4.70;;;;;;;;;;5021914;28;20227;-66
2023/08/25 00:26:32;;;;;;;4.68;4.15;;;;;;;;;;5028563;28;20200;-65
2023/08/25 00:28:59;;;;;;;5.45;4.40;;;;;;;;;;5026561;28;20200;-65
2023/08/25 00:31:26;;;;;;;6.10;5.18;;;;;;;;;;5030844;28;20211;-65
2023/08/25 00:33:57;;;;;;;5.93;5.20;;;;;;;;;;5028574;28;20200;-65
2023/08/25 00:36:25;;;;;;;6.63;5.15;;;;;;;;;;5029396;28;20262;-66
2023/08/25 00:38:53;;;;;;;6.53;5.65;;;;;;;;;;5028631;28;20211;-65
2023/08/25 00:41:22;;;;;;;6.57;5.22;;;;;;;;;;5029970;28;20209;-65
2023/08/25 00:43:52;;;;;;;5.20;4.70;;;;;;;;;;5030720;28;20208;-65
2023/08/25 00:46:19;;;;;;;5.63;4.70;;;;;;;;;;5027289;28;20228;-65
2023/08/25 00:48:46;;;;;;;9.82;5.43;;;;;;;;;;5035648;28;20215;-65
2023/08/25 00:51:15;;;;;;;5.43;4.90;;;;;;;;;;5030078;28;20212;-66
2023/08/25 00:53:43;;;;;;;5.45;4.63;;;;;;;;;;5028753;28;20205;-65
2023/08/25 00:56:13;;;;;;;6.15;5.00;;;;;;;;;;5032267;28;20196;-65
2023/08/25 00:58:40;;;;;;;6.00;4.38;;;;;;;;;;5023926;28;20196;-65
2023/08/25 01:01:08;;;;;;;5.53;4.55;;;;;;;;;;5027580;28;20226;-65
2023/08/25 01:03:39;;;;;;;6.20;4.55;;;;;;;;;;5026870;28;20229;-65
2023/08/25 01:06:06;;;;;;;4.93;4.50;;;;;;;;;;5026868;28;20216;-65
2023/08/25 01:08:34;;;;;;;6.40;5.35;;;;;;;;;;5025199;28;20214;-66
2023/08/25 01:11:05;;;;;;;6.38;5.63;;;;;;;;;;5026805;28;20208;-65
2023/08/25 01:13:37;;;;;;;9.15;6.53;;;;;;;;;;5025821;28;20203;-65
2023/08/25 01:16:06;;;;;;;23.23;6.38;;;;;;;;;;5028446;28;20289;-65
2023/08/25 01:18:34;;;;;;;57.63;7.75;;;;;;;;;;5031491;28;20212;-65
2023/08/25 01:21:04;;;;;;;19.48;5.38;;;;;;;;;;5028785;28;20323;-66
2023/08/25 01:23:33;;;;;;;79.57;7.05;;;;;;;;;;5031234;28;20196;-65
2023/08/25 01:26:02;;;;;;;21.77;5.95;;;;;;;;;;5027412;28;20271;-65
2023/08/25 01:28:30;;;;;;;4.93;4.53;;;;;;;;;;5026794;28;20236;-65
2023/08/25 01:30:59;;;;;;;12.18;4.38;;;;;;;;;;5026871;28;20207;-65
2023/08/25 01:33:26;;;;;;;5.57;3.97;;;;;;;;;;5029531;28;20271;-70
2023/08/25 01:36:00;;;;;;;4.70;4.30;;;;;;;;;;5026493;28;20199;-71
2023/08/25 01:38:30;;;;;;;4.63;3.90;;;;;;;;;;5023453;28;20204;-70
2023/08/25 01:41:00;;;;;;;5.32;3.75;;;;;;;;;;5027664;28;20211;-70
2023/08/25 01:43:30;;;;;;;38.03;4.85;;;;;;;;;;5029824;28;20196;-69
2023/08/25 01:45:58;;;;;;;13.00;3.67;;;;;;;;;;5029480;28;20217;-71
2023/08/25 01:48:26;;;;;;;21.33;4.07;;;;;;;;;;5021592;28;20304;-70
2023/08/25 01:50:54;;;;;;;3.78;3.40;;;;;;;;;;5023345;28;20236;-70
2023/08/25 01:53:21;;;;;;;3.42;3.13;;;;;;;;;;5027224;28;20196;-70
2023/08/25 01:55:48;;;;;;;10.52;3.75;;;;;;;;;;5029057;28;20207;-70
2023/08/25 01:58:15;;;;;;;5.53;3.50;;;;;;;;;;5026023;28;20214;-70
2023/08/25 02:00:44;;;;;;;5.63;3.47;;;;;;;;;;5024838;28;20204;-70
2023/08/25 02:03:13;;;;;;;4.40;4.00;;;;;;;;;;5026180;28;20236;-71
2023/08/25 02:05:40;;;;;;;4.50;4.20;;;;;;;;;;5027092;28;20247;-70
2023/08/25 02:08:08;;;;;;;6.60;4.72;;;;;;;;;;5025770;28;20216;-70
2023/08/25 02:10:35;;;;;;;9.50;3.88;;;;;;;;;;5025998;28;20208;-70
2023/08/25 02:13:02;;;;;;;3.80;3.50;;;;;;;;;;5028757;28;20205;-70
2023/08/25 02:15:29;;;;;;;4.57;4.18;;;;;;;;;;5023297;28;20203;-70
2023/08/25 02:17:57;;;;;;;4.80;4.40;;;;;;;;;;5029088;28;20207;-71
2023/08/25 02:20:25;;;;;;;7.00;5.28;;;;;;;;;;5028671;28;20212;-70
2023/08/25 02:22:52;;;;;;;5.82;5.22;;;;;;;;;;5027643;28;20205;-69
2023/08/25 02:25:19;;;;;;;7.50;6.25;;;;;;;;;;5023767;28;20223;-71
2023/08/25 02:27:46;;;;;;;9.38;6.32;;;;;;;;;;5027696;28;20206;-69
2023/08/25 02:30:13;;;;;;;7.03;6.43;;;;;;;;;;5024350;28;20200;-70
2023/08/25 02:32:41;;;;;;;8.18;7.43;;;;;;;;;;5024922;28;20207;-70
2023/08/25 02:35:10;;;;;;;12.20;8.95;;;;;;;;;;5022577;28;20199;-71
2023/08/25 02:37:37;;;;;;;12.82;8.82;;;;;;;;;;5024394;28;20201;-71
2023/08/25 02:40:04;;;;;;;11.40;8.98;;;;;;;;;;5025056;28;20207;-71
2023/08/25 02:42:31;;;;;;;14.20;11.27;;;;;;;;;;5028918;28;20208;-71
2023/08/25 02:44:58;;;;;;;13.70;11.10;;;;;;;;;;5022092;28;20338;-71
2023/08/25 02:47:26;;;;;;;13.27;11.63;;;;;;;;;;5028874;28;20212;-70
2023/08/25 02:49:53;;;;;;;13.32;11.43;;;;;;;;;;5028676;28;20200;-71
2023/08/25 02:52:21;;;;;;;7.55;6.95;;;;;;;;;;5026676;28;20210;-70
2023/08/25 02:54:49;;;;;;;8.23;6.35;;;;;;;;;;5024185;28;20193;-71
2023/08/25 02:57:16;;;;;;;7.07;6.38;;;;;;;;;;5022784;28;20200;-71
2023/08/25 02:59:43;;;;;;;6.95;6.25;;;;;;;;;;5024771;28;20208;-71
2023/08/25 03:02:10;;;;;;;8.05;6.65;;;;;;;;;;5023539;28;20201;-70
2023/08/25 03:04:37;;;;;;;8.15;7.35;;;;;;;;;;5018135;28;20221;-70
2023/08/25 03:07:04;;;;;;;9.43;7.28;;;;;;;;;;5020952;28;20200;-70
2023/08/25 03:09:33;;;;;;;7.65;6.88;;;;;;;;;;5019876;28;20204;-70
2023/08/25 03:12:00;;;;;;;9.02;7.13;;;;;;;;;;5022340;28;20211;-71
2023/08/25 03:14:28;;;;;;;9.20;8.30;;;;;;;;;;5025118;28;20211;-70
2023/08/25 03:16:55;;;;;;;7.55;6.07;;;;;;;;;;5032234;28;20223;-70
2023/08/25 03:19:22;;;;;;;5.50;5.00;;;;;;;;;;5030686;28;20204;-70
2023/08/25 03:21:49;;;;;;;5.68;4.32;;;;;;;;;;5024080;28;20218;-70
2023/08/25 03:24:16;;;;;;;7.18;4.32;;;;;;;;;;5021460;28;20212;-70
2023/08/25 03:26:45;;;;;;;6.60;3.47;;;;;;;;;;5029757;28;20221;-70
2023/08/25 03:29:12;;;;;;;4.10;3.65;;;;;;;;;;5025446;28;20200;-70
2023/08/25 03:31:39;;;;;;;4.05;3.65;;;;;;;;;;5032751;28;20206;-70
2023/08/25 03:34:06;;;;;;;6.15;4.80;;;;;;;;;;5032315;28;20201;-70
2023/08/25 03:36:33;;;;;;;4.78;4.38;;;;;;;;;;5023549;28;20200;-70
2023/08/25 03:39:00;;;;;;;4.97;4.40;;;;;;;;;;5022177;28;20228;-70
2023/08/25 03:41:27;;;;;;;5.78;4.15;;;;;;;;;;5019578;28;20209;-70
2023/08/25 03:43:56;;;;;;;4.10;3.53;;;;;;;;;;5026599;28;20210;-70
2023/08/25 03:46:23;;;;;;;4.90;4.40;;;;;;;;;;5022287;28;20215;-70
2023/08/25 03:48:50;;;;;;;4.18;3.47;;;;;;;;;;5032061;28;20227;-70
2023/08/25 03:51:17;;;;;;;4.85;3.90;;;;;;;;;;5025840;28;20201;-70
2023/08/25 03:53:44;;;;;;;3.97;3.67;;;;;;;;;;5030839;28;20200;-65
2023/08/25 03:56:11;;;;;;;4.50;4.10;;;;;;;;;;5034324;28;20214;-65
2023/08/25 03:58:39;;;;;;;3.60;3.25;;;;;;;;;;5034736;28;20215;-66
2023/08/25 04:01:07;;;;;;;3.20;3.00;;;;;;;;;;5030819;28;20196;-65
2023/08/25 04:03:35;;;;;;;3.90;3.53;;;;;;;;;;5025092;28;20231;-65
2023/08/25 04:06:02;;;;;;;3.63;3.33;;;;;;;;;;5029157;28;20219;-65
2023/08/25 04:08:29;;;;;;;3.95;2.97;;;;;;;;;;5023390;28;20208;-66
2023/08/25 04:10:57;;;;;;;3.00;2.80;;;;;;;;;;5034995;28;20197;-65
2023/08/25 04:13:24;;;;;;;5.20;3.30;;;;;;;;;;5026755;28;20207;-65
2023/08/25 04:15:57;;;;;;;3.92;3.65;;;;;;;;;;5031233;28;20288;-65
2023/08/25 04:18:26;;;;;;;3.30;2.92;;;;;;;;;;5033303;28;20306;-65
2023/08/25 04:20:54;;;;;;;2.90;2.70;;;;;;;;;;5032485;28;20200;-65
2023/08/25 04:23:24;;;;;;;2.90;2.70;;;;;;;;;;5030851;28;20219;-65
2023/08/25 04:25:51;;;;;;;3.70;3.13;;;;;;;;;;5028710;28;20223;-65
2023/08/25 04:28:19;;;;;;;4.20;3.80;;;;;;;;;;5029908;28;20196;-65
2023/08/25 04:30:46;;;;;;;4.70;3.63;;;;;;;;;;5028055;28;20207;-65
2023/08/25 04:33:13;;;;;;;3.92;3.35;;;;;;;;;;5033255;28;20207;-66
2023/08/25 04:35:41;;;;;;;3.60;3.30;;;;;;;;;;5030519;28;20219;-65
2023/08/25 04:38:08;;;;;;;7.63;4.30;;;;;;;;;;5030004;28;20201;-65
2023/08/25 04:40:36;;;;;;;6.53;5.90;;;;;;;;;;5030768;28;20207;-65
2023/08/25 04:43:04;;;;;;;7.53;6.93;;;;;;;;;;5030831;28;20224;-69
2023/08/25 04:45:31;;;;;;;11.40;10.40;;;;;;;;;;5028048;28;20247;-68
2023/08/25 04:47:58;;;;;;;14.60;13.13;;;;;;;;;;5033552;28;20203;-67
2023/08/25 04:50:25;;;;;;;14.27;12.88;;;;;;;;;;5028046;28;20232;-65
2023/08/25 04:52:53;;;;;;;14.55;13.05;;;;;;;;;;5034917;28;20204;-65
2023/08/25 04:55:20;;;;;;;13.27;11.65;;;;;;;;;;5025656;28;20227;-65
2023/08/25 04:57:48;;;;;;;9.70;8.77;;;;;;;;;;5023793;28;20212;-67
2023/08/25 05:00:15;;;;;;;11.15;10.05;;;;;;;;;;5029576;28;20219;-66
2023/08/25 05:02:42;;;;;;;13.18;11.80;;;;;;;;;;5030234;28;20211;-66
2023/08/25 05:05:11;;;;;;;12.82;10.25;;;;;;;;;;5029692;28;20208;-71
2023/08/25 05:07:38;;;;;;;10.35;9.50;;;;;;;;;;5025507;28;20208;-71
2023/08/25 05:10:08;;;;;;;11.68;9.95;;;;;;;;;;5032028;28;20218;-70
2023/08/25 05:12:35;;;;;;;8.63;7.70;;;;;;;;;;5025777;28;20242;-71
2023/08/25 05:15:02;;;;;;;8.52;7.70;;;;;;;;;;5032074;28;20287;-66
2023/08/25 05:17:30;;;;;;;7.32;6.63;;;;;;;;;;5028828;28;20428;-66
2023/08/25 05:19:57;;;;;;;11.50;9.38;;;;;;;;;;5029658;28;20200;-66
2023/08/25 05:22:24;;;;;;;6.85;6.28;;;;;;;;;;5031396;28;20196;-65
2023/08/25 05:24:53;;;;;;;39.88;7.68;;;;;;;;;;5027974;28;20201;-66
2023/08/25 05:27:21;;;;;;;5.45;4.95;;;;;;;;;;5026826;28;20262;-65
2023/08/25 05:29:49;;;;;;;57.13;7.15;;;;;;;;;;5026231;28;20196;-66
2023/08/25 05:32:16;;;;;;;87.78;9.13;;;;;;;;;;5023586;28;20210;-65
2023/08/25 05:34:43;;;;;;;6.18;5.68;;;;;;;;;;5022649;28;20208;-65
2023/08/25 05:37:10;;;;;;;5.75;5.25;;;;;;;;;;5025998;28;20228;-66
2023/08/25 05:39:37;;;;;;;6.20;5.70;;;;;;;;;;5028010;28;20203;-66
2023/08/25 05:42:04;;;;;;;25.50;8.27;;;;;;;;;;5024641;28;20210;-66
2023/08/25 05:44:33;;;;;;;17.63;6.80;;;;;;;;;;5029190;28;20204;-66
2023/08/25 05:47:00;;;;;;;5.03;4.63;;;;;;;;;;5030687;28;20254;-66
2023/08/25 05:49:27;;;;;;;5.28;4.82;;;;;;;;;;5031553;28;20215;-66
2023/08/25 05:51:54;;;;;;;4.50;4.20;;;;;;;;;;5032369;28;20200;-65
2023/08/25 05:54:22;;;;;;;5.20;4.80;;;;;;;;;;5029115;28;20220;-65
2023/08/25 05:56:49;;;;;;;9.93;9.02;;;;;;;;;;5028804;28;20200;-66
2023/08/25 05:59:16;;;;;;;10.38;8.93;;;;;;;;;;5029998;28;20212;-66
2023/08/25 06:01:44;;;;;;;10.48;8.82;;;;;;;;;;5024574;28;20200;-66
2023/08/25 06:04:11;;;;;;;9.95;9.05;;;;;;;;;;5028597;28;20243;-65
2023/08/25 06:06:39;;;;;;;8.15;7.35;;;;;;;;;;5030276;28;20224;-66
2023/08/25 06:09:08;;;;;;;8.80;7.97;;;;;;;;;;5026891;28;20219;-67
2023/08/25 06:11:35;;;;;;;8.55;7.75;;;;;;;;;;5031013;28;20193;-65
2023/08/25 06:14:02;;;;;;;8.52;7.63;;;;;;;;;;5024203;28;20211;-66
2023/08/25 06:16:29;;;;;;;8.05;7.18;;;;;;;;;;5027682;28;20218;-66
2023/08/25 06:18:58;;;;;;;8.60;7.70;;;;;;;;;;5027428;28;20211;-66
2023/08/25 06:21:25;;;;;;;7.63;6.93;;;;;;;;;;5027404;28;20204;-66
2023/08/25 06:23:52;;;;;;;9.82;7.75;;;;;;;;;;5027536;28;20215;-71
2023/08/25 06:26:19;;;;;;;8.07;7.28;;;;;;;;;;5025710;28;20224;-71
2023/08/25 06:28:46;;;;;;;8.73;7.82;;;;;;;;;;5025315;28;20211;-70
2023/08/25 06:31:13;;;;;;;8.50;7.70;;;;;;;;;;5029799;28;20235;-70
2023/08/25 06:33:40;;;;;;;8.70;7.90;;;;;;;;;;5028436;28;20203;-70
2023/08/25 06:36:09;;;;;;;9.77;7.43;;;;;;;;;;5027320;28;20260;-70
2023/08/25 06:38:36;;;;;;;7.78;7.00;;;;;;;;;;5029182;28;20202;-70
2023/08/25 06:41:04;;;;;;;7.60;6.90;;;;;;;;;;5027772;28;20287;-70
2023/08/25 06:43:31;;;;;;;7.05;6.35;;;;;;;;;;5025644;28;20207;-70
2023/08/25 06:45:59;;;;;;;7.03;6.25;;;;;;;;;;5026593;28;20232;-69
2023/08/25 06:48:26;;;;;;;7.40;6.70;;;;;;;;;;5025401;28;20210;-69
2023/08/25 06:50:53;;;;;;;6.20;5.47;;;;;;;;;;5026983;28;20242;-69
2023/08/25 06:53:21;;;;;;;7.45;6.72;;;;;;;;;;5021051;28;20210;-69
2023/08/25 06:55:49;;;;;;;5.30;4.80;;;;;;;;;;5026086;28;20215;-69
2023/08/25 06:58:16;;;;;;;7.88;5.00;;;;;;;;;;5025735;28;20208;-69
2023/08/25 07:00:43;;;;;;;4.97;4.57;;;;;;;;;;5031004;28;20208;-69
2023/08/25 07:03:10;;;;;;;6.85;4.72;;;;;;;;;;5023439;28;20242;-70
2023/08/25 07:05:39;;;;;;;4.70;4.40;;;;;;;;;;5024786;28;20211;-70
2023/08/25 07:08:07;;;;;;;5.93;4.63;;;;;;;;;;5021108;28;20263;-69
2023/08/25 07:10:35;;;;;;;4.97;4.50;;;;;;;;;;5021335;28;20204;-70
2023/08/25 07:13:03;;;;;;;4.35;3.95;;;;;;;;;;5023477;28;20210;-69
2023/08/25 07:15:30;;;;;;;4.05;3.72;;;;;;;;;;5021351;28;20208;-69
2023/08/25 07:17:57;;;;;;;5.15;4.40;;;;;;;;;;5022421;28;20208;-69
2023/08/25 07:20:24;;;;;;;5.05;4.18;;;;;;;;;;5026060;28;20205;-70
2023/08/25 07:22:51;;;;;;;4.70;4.25;;;;;;;;;;5023370;28;20209;-70
2023/08/25 07:25:18;;;;;;;5.18;4.68;;;;;;;;;;5023291;28;20274;-69
2023/08/25 07:27:47;;;;;;;4.57;4.18;;;;;;;;;;5020042;28;20219;-69
2023/08/25 07:30:14;;;;;;;4.60;4.18;;;;;;;;;;5022031;28;20215;-69
2023/08/25 07:32:42;;;;;;;5.38;4.80;;;;;;;;;;5020604;28;20207;-69
2023/08/25 07:35:09;;;;;;;5.20;4.68;;;;;;;;;;5018267;28;20197;-69
2023/08/25 07:37:39;;;;;;;4.70;4.30;;;;;;;;;;5029458;28;20200;-69
2023/08/25 07:40:09;;;;;;;5.90;4.85;;;;;;;;;;5019053;28;20236;-69
2023/08/25 07:42:36;;;;;;;6.10;5.22;;;;;;;;;;5024160;28;20307;-69
2023/08/25 07:45:05;;;;;;;7.53;4.55;;;;;;;;;;5027097;28;20204;-69
2023/08/25 07:47:32;;;;;;;4.53;4.13;;;;;;;;;;5025993;28;20224;-69
2023/08/25 07:49:59;;;;;;;5.50;4.60;;;;;;;;;;5023148;28;20200;-69
2023/08/25 07:52:27;;;;;;;4.57;4.15;;;;;;;;;;5020878;28;20200;-69
2023/08/25 07:54:54;;;;;;;4.20;3.80;;;;;;;;;;5024887;28;20214;-69
2023/08/25 07:57:21;;;;;;;4.65;4.13;;;;;;;;;;5022633;28;20262;-69
2023/08/25 07:59:48;;;;;;;4.28;3.85;;;;;;;;;;5023133;28;20243;-69
2023/08/25 08:02:17;;;;;;;4.55;4.15;;;;;;;;;;5022758;28;20517;-69
2023/08/25 08:04:44;;;;;;;4.00;3.70;;;;;;;;;;5029402;28;20237;-69
2023/08/25 08:07:11;;;;;;;4.35;3.83;;;;;;;;;;5026419;28;20224;-69
2023/08/25 08:09:39;;;;;;;4.35;3.83;;;;;;;;;;5024578;28;20224;-69
2023/08/25 08:12:06;;;;;;;4.85;4.00;;;;;;;;;;5025689;28;20219;-69
2023/08/25 08:14:35;;;;;;;4.20;3.78;;;;;;;;;;5021995;28;20205;-69
2023/08/25 08:17:02;;;;;;;5.05;3.92;;;;;;;;;;5020503;28;20201;-69
2023/08/25 08:19:31;;;;;;;4.65;3.47;;;;;;;;;;5024729;28;20207;-68
2023/08/25 08:21:58;;;;;;;4.80;3.50;;;;;;;;;;5027400;28;20201;-69
2023/08/25 08:24:26;;;;;;;6.43;3.40;;;;;;;;;;5027771;28;20254;-69
2023/08/25 08:26:53;;;;;;;3.50;3.20;;;;;;;;;;5021328;28;20224;-69
2023/08/25 08:29:20;;;;;;;3.75;3.28;;;;;;;;;;5033171;28;20200;-68
2023/08/25 08:31:47;;;;;;;4.55;3.33;;;;;;;;;;5028029;28;20228;-69
2023/08/25 08:34:14;;;;;;;4.00;3.60;;;;;;;;;;5023677;28;20232;-68
2023/08/25 08:36:43;;;;;;;3.83;3.00;;;;;;;;;;5023235;28;20193;-69
2023/08/25 08:39:10;;;;;;;3.75;3.28;;;;;;;;;;5024566;28;20211;-69
2023/08/25 08:41:40;;;;;;;3.75;3.38;;;;;;;;;;5032405;28;20199;-68
2023/08/25 08:44:08;;;;;;;2.97;2.78;;;;;;;;;;5026138;28;20200;-64
2023/08/25 08:46:38;;;;;;;3.47;3.13;;;;;;;;;;5023643;28;20200;-64
2023/08/25 08:49:05;;;;;;;4.63;3.30;;;;;;;;;;5027421;28;20262;-63
2023/08/25 08:51:32;;;;;;;3.20;2.95;;;;;;;;;;5030629;28;20196;-64
2023/08/25 08:54:06;;;;;;;3.72;3.33;;;;;;;;;;5027441;28;20215;-64
2023/08/25 08:56:33;;;;;;;3.40;3.10;;;;;;;;;;5025774;28;20200;-64
2023/08/25 08:59:01;;;;;;;4.95;3.00;;;;;;;;;;5025585;28;20215;-64
2023/08/25 09:01:29;;;;;;;5.40;3.15;;;;;;;;;;5029610;28;20212;-64
2023/08/25 09:04:00;;;;;;;3.20;2.90;;;;;;;;;;5025066;28;20295;-65
2023/08/25 09:06:28;;;;;;;3.28;2.97;;;;;;;;;;5029544;28;20205;-65
2023/08/25 09:08:58;;;;;;;3.17;2.88;;;;;;;;;;5022136;28;20193;-65
2023/08/25 09:11:26;;;;;;;3.05;2.70;;;;;;;;;;5028722;28;20340;-64
2023/08/25 09:13:57;;;;;;;4.53;2.88;;;;;;;;;;5029255;28;20200;-64
2023/08/25 09:16:24;;;;;;;3.35;2.78;;;;;;;;;;5023656;28;20232;-64
2023/08/25 09:18:51;;;;;;;4.38;2.67;;;;;;;;;;5028869;28;20203;-64
2023/08/25 09:21:19;;;;;;;5.50;2.75;;;;;;;;;;5023881;28;20211;-64
2023/08/25 09:23:53;;;;;;;3.28;2.58;;;;;;;;;;5022827;28;20203;-64
2023/08/25 09:26:20;;;;;;;2.85;2.65;;;;;;;;;;5021583;28;20259;-63
2023/08/25 09:28:48;;;;;;;3.38;2.75;;;;;;;;;;5030237;28;20220;-64
2023/08/25 09:31:22;;;;;;;2.97;2.75;;;;;;;;;;5026501;28;20209;-63
2023/08/25 09:33:51;;;;;;;2.90;2.42;;;;;;;;;;5022696;28;20209;-64
2023/08/25 09:36:18;;;;;;;3.75;2.63;;;;;;;;;;5033029;28;20327;-63
2023/08/25 09:38:45;;;;;;;3.45;2.75;;;;;;;;;;5028743;28;20197;-63
2023/08/25 09:41:13;;;;;;;4.97;2.80;;;;;;;;;;5024259;28;20200;-63
2023/08/25 09:43:40;;;;;;;6.22;2.80;;;;;;;;;;5020545;28;20224;-64
2023/08/25 09:46:10;;;;;;;4.00;2.45;;;;;;;;;;5029860;28;20210;-63
2023/08/25 09:48:37;;;;;;;2.83;2.38;;;;;;;;;;5024183;28;20240;-63
2023/08/25 09:51:06;;;;;;;4.78;2.47;;;;;;;;;;5025230;28;20200;-64
2023/08/25 09:53:34;;;;;;;3.00;2.63;;;;;;;;;;5025995;28;20212;-68
2023/08/25 09:56:04;;;;;;;4.00;2.60;;;;;;;;;;5027414;28;20212;-68
2023/08/25 09:58:32;;;;;;;5.00;2.80;;;;;;;;;;5025694;28;20216;-68
2023/08/25 10:00:59;;;;;;;3.88;2.65;;;;;;;;;;5029484;28;20215;-68
2023/08/25 10:03:28;;;;;;;3.08;2.78;;;;;;;;;;5026104;28;20236;-67
2023/08/25 10:05:55;;;;;;;5.22;2.60;;;;;;;;;;5023259;28;20208;-70
2023/08/25 10:08:24;;;;;;;3.40;2.50;;;;;;;;;;5028557;28;20231;-69
2023/08/25 10:10:51;;;;;;;3.60;2.60;;;;;;;;;;5022925;28;20200;-69
2023/08/25 10:13:19;;;;;;;5.35;2.70;;;;;;;;;;5025681;28;20208;-69
2023/08/25 10:15:47;;;;;;;3.63;2.42;;;;;;;;;;5021150;28;20263;-68
2023/08/25 10:18:14;;;;;;;4.22;2.80;;;;;;;;;;5026510;28;20201;-67
2023/08/25 10:20:44;;;;;;;5.15;2.80;;;;;;;;;;5027880;28;20208;-68
2023/08/25 10:23:12;;;;;;;4.78;2.85;;;;;;;;;;5029748;28;20267;-68
2023/08/25 10:25:39;;;;;;;5.75;2.72;;;;;;;;;;5024362;28;20214;-70
2023/08/25 10:28:08;;;;;;;4.13;2.80;;;;;;;;;;5022587;28;20224;-68
2023/08/25 10:30:35;;;;;;;3.08;2.78;;;;;;;;;;5021783;28;20246;-69
2023/08/25 10:33:04;;;;;;;4.57;2.72;;;;;;;;;;5022469;28;20204;-71
2023/08/25 10:35:39;;;;;;;4.05;3.13;;;;;;;;;;5024990;28;20212;-69
2023/08/25 10:38:23;;;;;;;3.22;2.90;;;;;;;;;;5022923;28;20205;-69
2023/08/25 10:40:51;;;;;;;3.33;3.00;;;;;;;;;;5022866;28;20273;-69
2023/08/25 10:43:24;;;;;;;4.20;3.38;;;;;;;;;;5027292;28;20196;-69
2023/08/25 10:45:52;;;;;;;3.58;3.25;;;;;;;;;;5024234;28;20201;-68
2023/08/25 10:48:19;;;;;;;6.57;3.60;;;;;;;;;;5017311;28;20235;-67
2023/08/25 10:50:47;;;;;;;5.22;3.35;;;;;;;;;;5028956;28;20210;-68
2023/08/25 10:53:28;;;;;;;6.38;3.60;;;;;;;;;;5024291;28;20208;-68
2023/08/25 10:55:57;;;;;;;4.40;3.65;;;;;;;;;;5024669;28;20207;-68
2023/08/25 10:58:32;;;;;;;5.05;3.60;;;;;;;;;;5023918;28;20196;-68
2023/08/25 11:01:02;;;;;;;4.95;3.60;;;;;;;;;;5022964;28;20238;-68
2023/08/25 11:03:44;;;;;;;5.63;3.72;;;;;;;;;;5021634;28;20473;-63
2023/08/25 11:06:26;;;;;;;4.38;3.45;;;;;;;;;;5026865;28;20210;-64
2023/08/25 11:08:57;;;;;;;5.90;3.80;;;;;;;;;;5022551;28;20225;-63
2023/08/25 11:11:26;;;;;;;5.13;3.55;;;;;;;;;;5029352;28;20204;-65
2023/08/25 11:13:53;;;;;;;4.45;3.50;;;;;;;;;;5025524;28;20204;-64
2023/08/25 11:16:20;;;;;;;3.80;3.50;;;;;;;;;;5024745;28;20208;-65
2023/08/25 11:18:49;;;;;;;3.72;3.42;;;;;;;;;;5024028;28;20196;-65
2023/08/25 11:21:16;;;;;;;4.53;3.90;;;;;;;;;;5023349;28;20240;-62
2023/08/25 11:23:43;;;;;;;7.03;3.95;;;;;;;;;;5025128;28;20209;-64
2023/08/25 11:26:11;;;;;;;4.38;3.97;;;;;;;;;;5025382;28;20216;-63
2023/08/25 11:28:40;;;;;;;6.25;4.60;;;;;;;;;;5024647;28;20224;-63
2023/08/25 11:31:07;;;;;;;5.80;4.40;;;;;;;;;;5024274;28;20207;-64
2023/08/25 11:33:34;;;;;;;4.93;4.40;;;;;;;;;;5024056;28;20200;-64
2023/08/25 11:36:02;;;;;;;5.63;3.78;;;;;;;;;;5032151;28;20204;-65
2023/08/25 11:38:30;;;;;;;4.88;4.45;;;;;;;;;;5029800;28;20272;-63
2023/08/25 11:40:57;;;;;;;4.80;4.30;;;;;;;;;;5032224;28;20253;-63
2023/08/25 11:43:28;;;;;;;6.78;4.70;;;;;;;;;;5023119;28;20204;-63
2023/08/25 11:45:58;;;;;;;8.35;4.50;;;;;;;;;;5029810;28;20197;-64
2023/08/25 11:48:25;;;;;;;5.32;4.82;;;;;;;;;;5025643;28;20303;-63
2023/08/25 11:50:52;;;;;;;7.38;4.45;;;;;;;;;;5025162;28;20207;-63
2023/08/25 11:53:19;;;;;;;8.55;4.55;;;;;;;;;;5021463;28;20205;-63
2023/08/25 11:55:58;;;;;;;6.75;4.90;;;;;;;;;;5025519;28;20205;-63
2023/08/25 11:58:30;;;;;;;8.27;4.60;;;;;;;;;;5023539;28;20200;-63
2023/08/25 12:01:01;;;;;;;7.10;4.95;;;;;;;;;;5023390;28;20232;-63
2023/08/25 12:03:28;;;;;;;6.78;4.88;;;;;;;;;;5027148;28;20224;-63
2023/08/25 12:05:55;;;;;;;5.68;4.75;;;;;;;;;;5025739;28;20200;-63
2023/08/25 12:08:25;;;;;;;5.60;5.03;;;;;;;;;;5027448;28;20220;-63
2023/08/25 12:10:54;;;;;;;5.18;4.68;;;;;;;;;;5026037;28;20232;-63
2023/08/25 12:13:25;;;;;;;9.27;5.05;;;;;;;;;;5026742;28;20201;-64
2023/08/25 12:15:53;;;;;;;7.28;5.35;;;;;;;;;;5022663;28;20212;-64
2023/08/25 12:18:22;;;;;;;7.13;5.68;;;;;;;;;;5023049;28;20203;-64
2023/08/25 12:20:49;;;;;;;5.72;5.10;;;;;;;;;;5021711;28;20215;-63
2023/08/25 12:23:16;;;;;;;5.80;5.30;;;;;;;;;;5022007;28;20204;-63
2023/08/25 12:25:43;;;;;;;6.50;5.68;;;;;;;;;;5025181;28;20247;-63
2023/08/25 12:28:11;;;;;;;7.10;5.10;;;;;;;;;;5015422;28;20236;-62
2023/08/25 12:30:39;;;;;;;7.50;5.38;;;;;;;;;;5026062;28;20282;-63
2023/08/25 12:33:06;;;;;;;7.78;5.68;;;;;;;;;;5034366;28;20211;-64
2023/08/25 12:35:35;;;;;;;7.43;5.20;;;;;;;;;;5023636;28;20209;-63
2023/08/25 12:38:02;;;;;;;6.15;5.55;;;;;;;;;;5020260;28;20213;-64
2023/08/25 12:40:30;;;;;;;7.10;5.45;;;;;;;;;;5021303;28;20203;-64
2023/08/25 12:42:57;;;;;;;5.93;5.35;;;;;;;;;;5030711;28;20294;-64
2023/08/25 12:45:24;;;;;;;6.00;5.40;;;;;;;;;;5033264;28;20218;-64
2023/08/25 12:47:52;;;;;;;5.63;5.10;;;;;;;;;;5026962;28;20200;-64
2023/08/25 12:50:19;;;;;;;6.35;5.70;;;;;;;;;;5020790;28;20210;-63
2023/08/25 12:52:48;;;;;;;5.80;5.22;;;;;;;;;;5028930;28;20212;-64
2023/08/25 12:55:15;;;;;;;7.18;5.50;;;;;;;;;;5024703;28;20212;-63
2023/08/25 12:57:46;;;;;;;8.27;5.72;;;;;;;;;;5025209;28;20197;-64
2023/08/25 13:00:13;;;;;;;7.72;6.13;;;;;;;;;;5029065;28;20204;-63
2023/08/25 13:02:41;;;;;;;7.07;6.38;;;;;;;;;;5021287;28;20200;-63
2023/08/25 13:05:09;;;;;;;7.60;6.30;;;;;;;;;;5025314;28;20282;-63
2023/08/25 13:07:38;;;;;;;6.80;5.70;;;;;;;;;;5020759;28;20207;-63
2023/08/25 13:10:08;;;;;;;7.15;6.53;;;;;;;;;;5028620;28;20224;-63
2023/08/25 13:12:35;;;;;;;7.20;6.50;;;;;;;;;;5023969;28;20291;-66
2023/08/25 13:15:03;;;;;;;7.90;6.47;;;;;;;;;;5030242;28;20196;-64
2023/08/25 13:17:30;;;;;;;8.75;6.90;;;;;;;;;;5020111;28;20201;-64
2023/08/25 13:19:57;;;;;;;7.63;6.82;;;;;;;;;;5017174;28;20212;-64
2023/08/25 13:22:24;;;;;;;8.40;7.00;;;;;;;;;;5022358;28;20204;-63
2023/08/25 13:24:51;;;;;;;7.00;6.13;;;;;;;;;;5019386;28;20212;-63
2023/08/25 13:27:21;;;;;;;6.68;5.88;;;;;;;;;;5019384;28;20208;-64
2023/08/25 13:29:48;;;;;;;7.47;6.75;;;;;;;;;;5021868;28;20282;-64
2023/08/25 13:32:17;;;;;;;9.20;6.60;;;;;;;;;;5025424;28;20212;-64
2023/08/25 13:34:44;;;;;;;6.85;6.13;;;;;;;;;;5029746;28;20204;-63
2023/08/25 13:37:11;;;;;;;8.07;6.47;;;;;;;;;;5028112;28;20207;-63
2023/08/25 13:39:38;;;;;;;6.47;5.85;;;;;;;;;;5022493;28;20207;-64
2023/08/25 13:42:06;;;;;;;6.22;5.35;;;;;;;;;;5028314;28;20207;-64
2023/08/25 13:44:38;;;;;;;6.40;5.78;;;;;;;;;;5027057;28;20220;-64
2023/08/25 13:47:05;;;;;;;9.40;6.50;;;;;;;;;;5025975;28;20205;-64
2023/08/25 13:49:32;;;;;;;6.75;5.43;;;;;;;;;;5024371;28;20224;-65
2023/08/25 13:51:59;;;;;;;8.52;5.43;;;;;;;;;;5022838;28;20208;-64
2023/08/25 13:54:26;;;;;;;6.28;5.50;;;;;;;;;;5027981;28;20219;-64
2023/08/25 13:56:53;;;;;;;8.18;5.30;;;;;;;;;;5025350;28;20212;-64
2023/08/25 13:59:21;;;;;;;6.05;5.45;;;;;;;;;;5026639;28;20204;-64
2023/08/25 14:01:49;;;;;;;6.25;4.80;;;;;;;;;;5027634;28;20258;-63
2023/08/25 14:04:17;;;;;;;7.13;5.35;;;;;;;;;;5023606;28;20239;-64
2023/08/25 14:06:44;;;;;;;5.07;4.57;;;;;;;;;;5017686;28;20267;-63
2023/08/25 14:09:12;;;;;;;5.40;4.90;;;;;;;;;;5026119;28;20216;-63
2023/08/25 14:11:39;;;;;;;6.40;4.47;;;;;;;;;;5020040;28;20298;-63
2023/08/25 14:14:07;;;;;;;5.38;4.88;;;;;;;;;;5024045;28;20204;-64
2023/08/25 14:16:35;;;;;;;7.88;5.30;;;;;;;;;;5026190;28;20200;-64
2023/08/25 14:19:03;;;;;;;7.68;4.88;;;;;;;;;;5026348;28;20505;-63
2023/08/25 14:21:30;;;;;;;6.10;5.07;;;;;;;;;;5027235;28;20211;-63
2023/08/25 14:23:57;;;;;;;5.25;4.78;;;;;;;;;;5028116;28;20201;-64
2023/08/25 14:26:24;;;;;;;8.18;5.50;;;;;;;;;;5022807;28;20208;-63
2023/08/25 14:28:51;;;;;;;7.60;4.70;;;;;;;;;;5022060;28;20228;-64
2023/08/25 14:31:19;;;;;;;5.28;4.78;;;;;;;;;;5019886;28;20205;-64
2023/08/25 14:33:46;;;;;;;7.10;5.22;;;;;;;;;;5024142;28;20316;-64
2023/08/25 14:36:14;;;;;;;6.43;4.90;;;;;;;;;;5022279;28;20208;-64
2023/08/25 14:38:42;;;;;;;5.35;4.85;;;;;;;;;;5025740;28;20203;-63
2023/08/25 14:41:10;;;;;;;5.43;4.90;;;;;;;;;;5022447;28;20222;-63
2023/08/25 14:43:37;;;;;;;4.97;4.47;;;;;;;;;;5020544;28;20319;-64
2023/08/25 14:46:04;;;;;;;5.20;4.80;;;;;;;;;;5028497;28;20204;-63